Weather observations for the past three days for
Merced Regional Airport
Metric (Imperial)
Date Time (pdt) Wind (kph) Vis. (km) Weather Sky Cond. Temperature (ºC) Relative Humidity Wind Chill (°C) Heat Index (°C) Pressure Precipitation (cm)
Air Dwpt 6 hour altimeter (cm) sea level (mb) 1 hr 3 hr 6 hr
Max. Min.
03 02:53 NW 17 16.09 Fair CLR 16.7 12.2 75% 76.12 1014.8
03 01:53 NW 17 16.09 Fair CLR 17.2 12.2 73% 76.12 1014.9
03 00:53 NW 19 16.09 Fair CLR 18.3 12.2 68% 76.12 1014.9
02 23:53 NW 19 16.09 Fair CLR 19.4 11.1 59% 76.12 1014.9
02 22:53 NW 20 16.09 Fair CLR 20.6 11.7 28.3 20.6 57% 76.12 1014.8
02 21:53 N 28 G 37 16.09 Fair CLR 22.2 12.8 55% 76.12 1014.6
02 20:53 W 13 16.09 Fair CLR 21.7 11.7 53% 76.07 1014.0
02 19:53 W 15 16.09 Fair CLR 23.9 11.7 46% 25 76.05 1013.6
02 18:53 W 17 16.09 Fair CLR 27.2 9.4 33% 27 76.05 1013.6
02 17:53 Vrbl 6 16.09 Fair CLR 27.8 8.9 31% 27 76.05 1013.6
02 16:53 Calm 16.09 Fair CLR 27.8 8.3 28.9 22.2 29% 27 76.07 1014.1
02 15:53 N 7 16.09 Fair CLR 27.8 7.8 28% 27 76.12 1014.7
02 14:53 SW 11 16.09 Fair CLR 27.2 7.8 29% 27 76.17 1015.4
02 13:53 SW 7 16.09 Fair CLR 25.6 8.3 33% 26 76.23 1016.2
02 12:53 Calm 16.09 Fair CLR 25 8.3 35% 26 76.28 1016.7
02 11:53 Calm 16.09 Fair CLR 23.3 8.3 38% 76.3 1017.2
02 10:53 NW 6 16.09 Fair CLR 22.8 8.3 22.8 12.8 40% 76.33 1017.4
02 09:53 NW 9 16.09 Fair CLR 21.1 10 49% 76.33 1017.5
02 08:53 W 9 16.09 Fair CLR 18.3 10.6 61% 76.33 1017.4
02 07:53 NW 9 16.09 Fair CLR 15.6 10.6 72% 76.3 1017.2
02 06:53 W 7 16.09 Fair CLR 13.3 10 81% 76.25 1016.4
02 05:53 W 6 16.09 Fair CLR 13.3 10 81% 76.23 1016.0
02 04:53 NW 6 16.09 Fair CLR 13.9 10 18.3 13.9 78% 76.23 1016.0
02 03:53 NW 7 16.09 Fair CLR 13.9 10 78% 76.23 1016.2
02 02:53 W 7 16.09 Fair CLR 15.6 9.4 67% 76.23 1016.0
02 01:53 NW 9 16.09 Fair CLR 15 9.4 69% 76.23 1016.0
02 00:53 NW 13 16.09 Fair CLR 16.1 9.4 65% 76.23 1016.2
01 23:53 N 20 16.09 Fair CLR 17.2 9.4 60% 76.23 1016.1
01 22:53 N 22 G 37 16.09 Fair CLR 18.3 9.4 26.7 18.3 56% 76.23 1016.1
01 21:53 NW 15 16.09 Fair CLR 18.9 8.9 52% 76.2 1015.9
01 20:53 NW 20 G 37 16.09 Fair CLR 21.1 8.9 46% 76.12 1014.7
01 19:53 W 9 16.09 Fair CLR 21.7 8.9 44% 76.05 1013.6
01 18:53 NW 7 16.09 Fair CLR 25 7.2 32% 25 76 1013.0
01 17:53 NW 9 16.09 Fair CLR 26.1 7.2 30% 26 76 1013.0
01 16:53 NW 11 16.09 Fair CLR 26.1 7.8 26.7 20 31% 26 76 1013.0
01 15:53 NW 9 16.09 Fair CLR 25.6 7.8 32% 26 76.05 1013.6
01 14:53 Calm 16.09 Fair CLR 25 7.8 33% 25 76.07 1014.1
01 13:53 Vrbl 9 16.09 Fair CLR 23.9 8.3 37% 25 76.12 1014.8
01 12:53 Calm 16.09 Fair CLR 22.8 8.3 40% 76.17 1015.3
01 11:53 Calm 16.09 Fair CLR 22.2 8.9 43% 76.2 1015.8
01 10:53 N 9 16.09 Fair CLR 20 8.9 20.6 12.8 49% 76.25 1016.3
01 09:53 NW 13 16.09 Fair CLR 18.9 8.9 52% 76.23 1016.2
01 08:53 NW 15 16.09 Fair CLR 17.2 9.4 60% 76.2 1015.8
01 07:53 N 13 16.09 Fair CLR 15.6 10 70% 76.12 1014.9
01 06:53 N 11 16.09 Fair CLR 13.3 10 81% 76.1 1014.5
01 05:53 NW 11 16.09 Fair CLR 12.8 9.4 80% 76.07 1014.2
01 04:53 NW 11 16.09 Fair CLR 13.9 10 17.8 13.9 78% 76.02 1013.4
01 03:53 NW 15 16.09 Fair CLR 15 10 72% 76 1013.0
01 02:53 NW 15 16.09 Fair CLR 15 10.6 75% 76 1012.9
01 01:53 N 20 16.09 Fair CLR 16.1 10.6 70% 75.97 1012.6
01 00:53 N 19 16.09 Fair CLR 16.1 10.6 70% 75.97 1012.7
31 23:53 NW 19 16.09 Fair CLR 16.7 11.1 70% 75.95 1012.5
31 22:53 NW 24 16.09 Fair CLR 17.8 11.1 30 17.8 65% 75.92 1012.1
31 21:53 NW 22 16.09 Fair CLR 19.4 11.1 59% 75.9 1011.5
31 20:53 NW 28 G 35 16.09 Fair CLR 22.2 10.6 48% 75.82 1010.6
31 19:53 NW 17 16.09 Fair CLR 23.9 10.6 43% 25 75.74 1009.8
31 18:53 N 19 14.48 Fair CLR 27.2 10 34% 27 75.72 1009.2
31 17:53 N 15 12.87 Fair CLR 28.9 8.9 29% 28 75.72 1009.2
31 16:53 NW 17 16.09 Fair CLR 30 9.4 30.6 22.8 28% 29 75.72 1009.3
31 15:53 NW 15 16.09 Fair CLR 30 10 29% 29 75.77 1009.8
31 14:53 Vrbl 11 16.09 Fair CLR 29.4 9.4 29% 28 75.79 1010.3
31 13:53 NW 9 16.09 Fair CLR 27.8 10.6 34% 27 75.84 1011.0
31 12:53 Calm 16.09 Fair CLR 26.1 11.7 41% 26 75.9 1011.6
31 11:53 NW 13 16.09 Fair CLR 25 11.7 43% 26 75.92 1012.1
31 10:53 NW 13 16.09 Fair CLR 22.8 11.1 22.8 13.9 48% 75.92 1012.2
31 09:53 NW 13 16.09 Fair CLR 20.6 11.1 55% 75.92 1012.0
31 08:53 NW 17 16.09 Fair CLR 18.9 11.1 61% 75.9 1011.8
31 07:53 NW 9 16.09 Fair CLR 16.7 11.1 70% 75.87 1011.3
31 06:53 W 7 16.09 Fair CLR 14.4 10 75% 75.82 1010.5
31 05:53 Calm 16.09 Fair CLR 15.6 10.6 72% 75.77 1009.9
31 04:53 SW 6 16.09 Fair CLR 15.6 10.6 19.4 15 72% 75.77 1010.1
31 03:53 NW 9 16.09 Fair CLR 15.6 11.1 75% 75.77 1009.9
Date Time (pdt) Wind (kph) Vis. (km) Weather Sky Cond. Air Dwpt Max. Min. Relative Humidity Wind Chill (°C) Heat Index (°C) altimeter (cm) sea level (mb) 1 hr 3 hr 6 hr
6 hour
Temperature (ºC) Pressure Precipitation (cm)